Time;durP1;ratioP1;P1;durP2;ratioP2;P2;SDS_P1;SDS_P2;PMS_P1;PMS_P2;Temp;Humidity;BMP_temperature;BMP_pressure;BME280_temperature;BME280_humidity;BME280_pressure;Samples;Min_cycle;Max_cycle;Signal;HPM_P1;HPM_P2
2022/11/01 00:01:28;;;;;;;;;1.00;1.00;;;;;17.51;66.04;100487.94;5031629;28;45585;-59
2022/11/01 00:03:54;;;;;;;;;1.00;1.00;;;;;17.45;65.60;100501.94;5016331;28;45482;-61
2022/11/01 00:06:19;;;;;;;;;2.00;0.00;;;;;17.40;65.28;100498.75;5024988;28;45246;-59
2022/11/01 00:08:44;;;;;;;;;0.67;0.67;;;;;17.33;65.56;100502.97;5014328;28;46027;-60
2022/11/01 00:11:13;;;;;;;;;0.00;0.00;;;;;17.25;65.27;100506.31;5028497;28;45273;-60
2022/11/01 00:13:39;;;;;;;;;2.67;1.00;;;;;17.25;64.75;100508.16;5015034;28;45290;-62
2022/11/01 00:16:05;;;;;;;;;1.00;1.00;;;;;17.17;64.88;100518.69;5033761;28;45656;-59
2022/11/01 00:18:30;;;;;;;;;0.00;0.00;;;;;17.12;64.92;100511.03;5036410;28;45437;-60
2022/11/01 00:20:56;;;;;;;;;1.00;1.00;;;;;17.10;65.44;100527.28;5031679;28;45464;-60
2022/11/01 00:23:21;;;;;;;;;1.67;0.67;;;;;17.05;65.27;100523.25;5015460;28;45434;-60
2022/11/01 00:25:47;;;;;;;;;0.67;0.67;;;;;16.95;64.36;100520.50;5016118;28;45582;-60
2022/11/01 00:28:12;;;;;;;;;1.00;1.00;;;;;16.99;64.49;100548.81;5015022;28;46226;-60
2022/11/01 00:30:38;;;;;;;;;1.00;1.00;;;;;16.95;64.56;100541.16;5014968;28;45368;-59
2022/11/01 00:33:04;;;;;;;;;0.00;0.00;;;;;16.89;64.17;100549.69;5030926;28;45422;-59
2022/11/01 00:35:31;;;;;;;;;0.00;0.00;;;;;16.85;64.12;100561.69;5026352;28;45530;-61
2022/11/01 00:38:00;;;;;;;;;2.00;0.00;;;;;16.79;64.38;100557.66;5027964;28;46058;-61
2022/11/01 00:40:26;;;;;;;;;1.00;0.00;;;;;16.75;63.95;100575.00;5026845;28;45643;-59
2022/11/01 00:42:51;;;;;;;;;0.67;0.00;;;;;16.70;63.48;100561.13;5014861;28;45497;-61
2022/11/01 00:45:18;;;;;;;;;0.00;0.00;;;;;16.64;64.01;100578.53;5015541;28;45577;-61
2022/11/01 00:47:47;;;;;;;;;0.00;0.00;;;;;16.61;63.56;100575.25;5027900;28;46419;-60
2022/11/01 00:50:12;;;;;;;;;0.00;0.00;;;;;16.56;63.37;100581.00;5024203;28;45326;-60
2022/11/01 00:52:38;;;;;;;;;1.00;1.00;;;;;16.53;63.28;100584.78;5020389;28;45550;-60
2022/11/01 00:55:04;;;;;;;;;0.00;0.00;;;;;16.44;63.13;100596.28;5036192;28;45525;-60
2022/11/01 00:57:29;;;;;;;;;0.00;0.00;;;;;16.42;63.31;100600.91;5021460;28;46242;-60
2022/11/01 00:59:54;;;;;;;;;0.00;0.00;;;;;16.35;63.21;100594.31;5017566;28;45456;-63
2022/11/01 01:02:20;;;;;;;;;0.00;0.00;;;;;16.28;62.84;100603.84;5023584;28;45680;-60
2022/11/01 01:04:46;;;;;;;;;0.00;0.00;;;;;16.23;63.31;100603.34;5035936;28;45564;-61
2022/11/01 01:07:12;;;;;;;;;0.00;0.00;;;;;16.15;62.55;100616.53;5039080;28;45438;-60
2022/11/01 01:09:38;;;;;;;;;0.00;0.00;;;;;16.08;63.07;100626.03;5038847;28;45327;-61
2022/11/01 01:12:04;;;;;;;;;0.67;0.67;;;;;16.00;63.00;100642.72;5039291;28;45407;-60
2022/11/01 01:14:30;;;;;;;;;0.67;0.00;;;;;15.89;62.75;100632.00;5039302;28;45460;-61
2022/11/01 01:16:55;;;;;;;;;1.00;0.00;;;;;15.84;63.09;100645.72;5026479;28;45479;-60
2022/11/01 01:19:21;;;;;;;;;0.00;0.00;;;;;15.82;62.54;100652.19;5029478;28;45280;-60
2022/11/01 01:21:46;;;;;;;;;0.00;0.00;;;;;15.78;62.88;100642.69;5024948;28;45379;-60
2022/11/01 01:24:11;;;;;;;;;0.00;0.00;;;;;15.75;62.87;100662.53;5019557;28;45340;-60
2022/11/01 01:26:37;;;;;;;;;0.00;0.00;;;;;15.71;62.78;100658.38;5024732;28;45564;-60
2022/11/01 01:29:02;;;;;;;;;1.00;0.00;;;;;15.62;62.75;100651.03;5018150;28;45431;-59
2022/11/01 01:31:28;;;;;;;;;1.33;0.00;;;;;15.58;63.01;100642.34;5018277;28;45519;-61
2022/11/01 01:33:53;;;;;;;;;0.00;0.00;;;;;15.56;62.91;100659.50;5018120;28;45449;-59
2022/11/01 01:36:19;;;;;;;;;2.33;0.00;;;;;15.51;62.88;100659.03;5026231;28;45573;-60
2022/11/01 01:38:44;;;;;;;;;1.00;0.00;;;;;15.46;63.26;100671.88;5017456;28;45906;-60
2022/11/01 01:43:54;;;;;;;;;0.00;0.00;;;;;15.38;63.51;100682.34;5018694;28;45343;-62
2022/11/01 01:46:19;;;;;;;;;0.00;0.00;;;;;15.31;63.28;100677.44;5021045;28;46855;-60
2022/11/01 01:48:50;;;;;;;;;0.00;0.00;;;;;15.28;63.02;100688.38;5017077;28;45364;-60
2022/11/01 01:51:22;;;;;;;;;1.33;0.33;;;;;15.17;63.08;100677.59;5021800;28;45442;-60
2022/11/01 01:53:52;;;;;;;;;0.00;0.00;;;;;15.19;63.13;100691.72;5049735;28;45421;-60
2022/11/01 01:56:23;;;;;;;;;1.00;0.00;;;;;15.14;63.27;100699.25;5016921;28;45710;-61
2022/11/01 01:58:56;;;;;;;;;0.00;0.00;;;;;15.08;62.95;100702.38;5020940;28;45577;-60
2022/11/01 02:01:22;;;;;;;;;0.00;0.00;;;;;15.02;63.65;100697.47;5016554;28;45344;-60
2022/11/01 02:03:47;;;;;;;;;1.00;0.00;;;;;14.99;62.88;100713.78;5018573;28;45189;-59
2022/11/01 02:06:22;;;;;;;;;0.00;0.00;;;;;14.93;63.36;100700.81;5016822;28;45266;-60
2022/11/01 02:08:58;;;;;;;;;0.00;0.00;;;;;14.89;62.73;100710.91;5023456;28;45293;-60
2022/11/01 02:11:24;;;;;;;;;0.00;0.00;;;;;14.89;62.57;100720.75;5019793;28;45385;-58
2022/11/01 02:13:49;;;;;;;;;1.00;0.00;;;;;14.83;62.83;100729.22;5019110;28;45699;-61
2022/11/01 02:16:34;;;;;;;;;0.00;0.00;;;;;14.80;62.66;100722.25;5028858;28;46280;-60
2022/11/01 02:19:36;;;;;;;;;2.00;0.00;;;;;14.74;62.50;100725.41;5017845;28;45328;-59
2022/11/01 02:22:24;;;;;;;;;1.67;0.00;;;;;14.69;63.09;100716.81;5018463;28;45367;-59
2022/11/01 02:25:28;;;;;;;;;1.00;0.00;;;;;14.62;62.88;100740.50;5032685;28;45476;-59
2022/11/01 02:27:53;;;;;;;;;1.00;0.00;;;;;14.59;62.81;100740.72;5033393;28;45435;-59
2022/11/01 02:30:20;;;;;;;;;0.67;0.00;;;;;14.58;63.11;100744.34;5018953;28;45264;-60
2022/11/01 02:33:01;;;;;;;;;0.00;0.00;;;;;14.54;63.44;100742.84;5017459;28;45546;-60
2022/11/01 02:35:32;;;;;;;;;0.00;0.00;;;;;14.52;63.62;100755.47;5017237;28;45367;-60
2022/11/01 02:37:58;;;;;;;;;0.00;0.00;;;;;14.49;63.30;100771.75;5017594;28;46538;-61
2022/11/01 02:40:30;;;;;;;;;0.00;0.00;;;;;14.45;64.16;100771.13;5017702;28;45497;-60
2022/11/01 02:43:03;;;;;;;;;0.67;0.00;;;;;14.43;63.54;100777.50;4997543;28;45308;-60
2022/11/01 02:45:55;;;;;;;;;1.33;0.00;;;;;14.34;63.18;100770.13;5029436;28;45552;-60
2022/11/01 02:48:24;;;;;;;;;0.00;0.00;;;;;14.35;62.73;100774.50;5016423;28;45505;-61
2022/11/01 02:50:57;;;;;;;;;2.00;1.00;;;;;14.31;63.06;100772.97;5017160;28;45578;-60
2022/11/01 02:53:23;;;;;;;;;0.00;0.00;;;;;14.30;63.23;100785.50;5000409;28;45257;-59
2022/11/01 02:55:53;;;;;;;;;0.00;0.00;;;;;14.27;62.80;100792.88;5019944;28;45481;-61
2022/11/01 02:58:23;;;;;;;;;1.67;0.00;;;;;14.22;62.89;100784.34;5016551;28;45440;-59
2022/11/01 03:00:50;;;;;;;;;0.00;0.00;;;;;14.23;62.85;100802.09;5041210;28;45346;-60
2022/11/01 03:03:34;;;;;;;;;0.33;0.33;;;;;14.20;63.00;100805.84;5017761;28;45380;-59
2022/11/01 03:05:59;;;;;;;;;0.00;0.00;;;;;14.21;62.32;100809.38;5027009;28;45470;-59
2022/11/01 03:08:42;;;;;;;;;0.33;0.00;;;;;14.17;62.63;100806.03;5018996;28;45568;-59
2022/11/01 03:11:13;;;;;;;;;0.00;0.00;;;;;14.14;62.72;100815.13;5016902;28;45325;-59
2022/11/01 03:13:56;;;;;;;;;4.33;0.00;;;;;14.12;62.62;100821.53;5019000;28;45754;-60
2022/11/01 03:16:32;;;;;;;;;0.00;0.00;;;;;14.12;62.89;100827.75;5028427;28;47310;-59
2022/11/01 03:19:08;;;;;;;;;2.00;0.00;;;;;14.10;63.49;100818.97;5016503;28;45514;-61
2022/11/01 03:21:49;;;;;;;;;2.00;0.00;;;;;14.06;63.06;100828.16;5017084;28;45862;-59
2022/11/01 03:24:23;;;;;;;;;0.00;0.00;;;;;14.08;63.66;100828.91;5014919;28;45289;-61
2022/11/01 03:27:03;;;;;;;;;0.00;0.00;;;;;14.04;63.79;100830.06;5016161;28;45527;-59
2022/11/01 03:29:31;;;;;;;;;0.00;0.00;;;;;14.01;63.78;100840.97;5020358;28;48449;-60
2022/11/01 03:32:00;;;;;;;;;3.00;0.00;;;;;13.93;63.48;100827.22;5020775;28;45447;-59
2022/11/01 03:34:25;;;;;;;;;0.00;0.00;;;;;14.01;63.75;100851.66;5030389;28;45320;-59
2022/11/01 03:36:55;;;;;;;;;3.00;0.00;;;;;13.95;63.55;100857.44;5022094;28;45207;-61
2022/11/01 03:39:31;;;;;;;;;2.00;1.00;;;;;13.95;64.20;100862.78;5016535;28;46180;-60
2022/11/01 03:42:04;;;;;;;;;0.00;0.00;;;;;13.93;63.63;100875.38;5014707;28;45368;-59
2022/11/01 03:44:35;;;;;;;;;0.67;0.00;;;;;13.86;63.90;100868.72;5019441;28;45458;-60
2022/11/01 03:47:01;;;;;;;;;3.00;0.00;;;;;13.90;64.01;100888.94;5026918;28;45488;-60
2022/11/01 03:49:27;;;;;;;;;1.00;1.00;;;;;13.90;64.13;100893.44;5015365;28;46247;-58
2022/11/01 03:51:52;;;;;;;;;0.67;0.00;;;;;13.84;64.35;100882.19;5021870;28;45525;-60
2022/11/01 03:54:17;;;;;;;;;2.00;0.00;;;;;13.84;64.67;100890.22;5014777;28;45500;-58
2022/11/01 03:56:43;;;;;;;;;1.67;0.00;;;;;13.71;64.20;100875.06;5014199;28;45380;-61
2022/11/01 03:59:09;;;;;;;;;0.00;0.00;;;;;13.81;64.12;100889.56;5015956;28;46447;-60
2022/11/01 04:01:34;;;;;;;;;0.00;0.00;;;;;13.73;64.53;100895.38;5014217;28;45356;-60
2022/11/01 04:04:00;;;;;;;;;0.67;0.00;;;;;13.71;64.87;100901.78;5016362;28;45331;-59
2022/11/01 04:06:25;;;;;;;;;1.67;1.00;;;;;13.74;64.72;100902.44;5014297;28;45502;-60
2022/11/01 04:08:51;;;;;;;;;0.00;0.00;;;;;13.70;65.18;100916.97;5024928;28;45698;-60
2022/11/01 04:11:17;;;;;;;;;1.00;1.00;;;;;13.63;65.24;100910.28;5014714;28;45583;-61
2022/11/01 04:13:42;;;;;;;;;2.00;1.00;;;;;13.66;65.18;100925.25;5015521;28;45467;-59
2022/11/01 04:21:37;;;;;;;;;1.00;1.00;;;;;13.61;64.95;100943.41;5023842;28;45344;-64
2022/11/01 04:24:03;;;;;;;;;3.67;0.00;;;;;13.57;65.20;100954.31;5014323;28;45371;-58
2022/11/01 04:26:28;;;;;;;;;2.00;0.00;;;;;13.57;64.98;100965.00;5014583;28;45658;-58
2022/11/01 04:28:56;;;;;;;;;1.00;1.00;;;;;13.55;65.14;100963.38;5015569;28;46290;-61
2022/11/01 04:31:27;;;;;;;;;1.00;1.00;;;;;13.52;65.30;100968.88;5020908;28;45520;-61
2022/11/01 04:33:54;;;;;;;;;5.00;4.33;;;;;13.50;65.29;100973.47;5033447;28;45725;-61
2022/11/01 04:36:19;;;;;;;;;4.00;0.00;;;;;13.46;64.84;100983.50;5019641;28;45319;-60
2022/11/01 04:38:48;;;;;;;;;2.00;0.67;;;;;13.43;64.96;100988.19;5019083;28;46262;-60
2022/11/01 04:41:15;;;;;;;;;1.00;1.00;;;;;13.46;64.59;101001.34;5019833;28;45533;-60
2022/11/01 04:43:40;;;;;;;;;3.00;0.00;;;;;13.43;65.13;101001.53;5019813;28;45415;-60
2022/11/01 04:46:06;;;;;;;;;0.00;0.00;;;;;13.40;64.99;100994.56;5020296;28;45612;-63
2022/11/01 04:48:31;;;;;;;;;8.00;1.00;;;;;13.43;65.36;100996.19;5020090;28;49260;-61
2022/11/01 04:50:59;;;;;;;;;0.33;0.33;;;;;13.38;65.01;100995.59;5039211;28;45344;-60
2022/11/01 04:53:24;;;;;;;;;2.00;0.00;;;;;13.42;64.93;101000.69;5021302;28;45343;-61
2022/11/01 04:55:49;;;;;;;;;2.67;1.00;;;;;13.37;64.96;100994.75;5020579;28;45246;-59
2022/11/01 04:58:15;;;;;;;;;1.00;1.00;;;;;13.36;65.16;101003.72;5018275;28;45838;-60
2022/11/01 05:00:42;;;;;;;;;2.00;0.00;;;;;13.36;65.52;101009.06;5018176;28;45338;-60
2022/11/01 05:03:09;;;;;;;;;0.33;0.33;;;;;13.37;65.79;101016.13;5019394;28;45494;-62
2022/11/01 05:05:35;;;;;;;;;0.00;0.00;;;;;13.36;65.89;101027.75;5018490;28;45450;-59
2022/11/01 05:08:04;;;;;;;;;3.00;0.00;;;;;13.33;66.12;101024.41;5018764;28;45490;-60
2022/11/01 05:10:30;;;;;;;;;2.00;1.00;;;;;13.33;65.88;101025.28;5019011;28;45257;-60
2022/11/01 05:12:55;;;;;;;;;0.33;0.00;;;;;13.33;65.82;101029.75;5019123;28;45430;-60
2022/11/01 05:15:21;;;;;;;;;1.00;0.00;;;;;13.28;66.34;101027.34;5018835;28;45541;-60
2022/11/01 05:17:47;;;;;;;;;0.00;0.00;;;;;13.30;66.26;101032.63;5018955;28;46085;-60
2022/11/01 05:20:12;;;;;;;;;2.67;0.00;;;;;13.25;66.22;101027.53;5018731;28;45294;-59
2022/11/01 05:22:38;;;;;;;;;4.00;1.33;;;;;13.23;66.72;101034.78;5006978;28;45396;-59
2022/11/01 05:25:04;;;;;;;;;4.67;1.00;;;;;13.20;66.74;101027.84;5039147;28;45534;-60
2022/11/01 05:27:29;;;;;;;;;1.67;1.00;;;;;13.27;66.86;101041.66;5036997;28;46062;-60
2022/11/01 05:29:54;;;;;;;;;1.67;1.33;;;;;13.27;66.81;101049.69;5038330;28;45457;-60
2022/11/01 05:32:20;;;;;;;;;0.00;0.00;;;;;13.22;67.25;101047.28;5039421;28;45360;-60
2022/11/01 05:34:47;;;;;;;;;3.00;1.00;;;;;13.20;67.02;101045.66;5039079;28;45494;-60
2022/11/01 05:37:14;;;;;;;;;3.33;0.33;;;;;13.20;67.63;101043.00;5034073;28;45399;-60
2022/11/01 05:39:40;;;;;;;;;1.33;1.00;;;;;13.22;66.99;101057.13;5016277;28;45270;-60
2022/11/01 05:42:05;;;;;;;;;1.00;1.00;;;;;13.21;67.62;101063.41;4997954;28;45187;-60
2022/11/01 05:44:30;;;;;;;;;1.00;1.00;;;;;13.16;67.79;101062.81;5028135;28;45470;-59
2022/11/01 05:46:56;;;;;;;;;2.00;0.00;;;;;13.12;67.76;101056.75;5017773;28;46596;-60
2022/11/01 05:49:21;;;;;;;;;3.00;0.00;;;;;13.11;67.70;101067.53;5018521;28;45327;-60
2022/11/01 05:51:47;;;;;;;;;1.33;1.00;;;;;13.05;67.92;101054.56;5018439;28;45239;-59
2022/11/01 05:54:12;;;;;;;;;1.00;1.00;;;;;13.12;67.40;101069.25;5018574;28;45466;-60
2022/11/01 05:56:38;;;;;;;;;1.00;0.00;;;;;13.11;67.54;101056.84;5019367;28;46073;-61
2022/11/01 05:59:03;;;;;;;;;2.00;1.00;;;;;13.08;67.68;101065.06;5018941;28;45332;-61
2022/11/01 06:01:29;;;;;;;;;1.67;0.33;;;;;13.09;67.97;101058.75;5028952;28;45415;-59
2022/11/01 06:03:54;;;;;;;;;5.00;0.00;;;;;13.09;67.66;101072.97;5038688;28;45438;-61
2022/11/01 06:06:19;;;;;;;;;1.33;0.00;;;;;13.08;67.67;101078.41;5039183;28;45452;-60
2022/11/01 06:08:45;;;;;;;;;3.00;2.00;;;;;13.05;67.79;101078.59;5037712;28;45447;-59
2022/11/01 06:11:11;;;;;;;;;3.67;1.00;;;;;13.06;67.86;101085.66;5038190;28;45391;-60
2022/11/01 06:13:36;;;;;;;;;1.00;1.00;;;;;12.98;68.19;101088.75;5053756;28;45357;-59
2022/11/01 06:16:04;;;;;;;;;3.00;0.00;;;;;13.00;68.06;101085.03;5038067;28;45383;-59
2022/11/01 06:18:30;;;;;;;;;1.00;1.00;;;;;13.00;67.88;101085.03;5036062;28;45327;-61
2022/11/01 06:20:56;;;;;;;;;2.00;0.33;;;;;12.96;68.53;101091.50;5036599;28;45254;-60
2022/11/01 06:23:22;;;;;;;;;4.00;1.00;;;;;12.97;68.39;101087.91;5038700;28;45363;-61
2022/11/01 06:25:48;;;;;;;;;0.00;0.00;;;;;12.98;68.33;101092.28;5038083;28;46330;-60
2022/11/01 06:28:14;;;;;;;;;0.00;0.00;;;;;12.95;68.62;101088.94;5037995;28;45398;-60
2022/11/01 06:30:39;;;;;;;;;2.00;0.00;;;;;12.94;68.62;101093.41;5038203;28;45842;-60
2022/11/01 06:33:08;;;;;;;;;2.67;1.00;;;;;12.95;68.16;101092.47;5038320;28;45487;-60
2022/11/01 06:35:34;;;;;;;;;4.00;1.00;;;;;12.97;68.45;101111.94;5034285;28;47221;-60
2022/11/01 06:38:05;;;;;;;;;5.00;1.00;;;;;12.96;68.35;101110.19;5037805;28;45428;-60
2022/11/01 06:40:31;;;;;;;;;3.00;1.33;;;;;12.99;68.12;101118.03;5037609;28;45375;-60
2022/11/01 06:43:01;;;;;;;;;1.00;1.00;;;;;13.00;68.64;101114.41;5037983;28;45554;-61
2022/11/01 06:45:28;;;;;;;;;2.67;1.00;;;;;12.96;68.40;101123.56;5037176;28;45273;-60
2022/11/01 06:47:53;;;;;;;;;3.33;0.33;;;;;12.96;68.39;101118.22;5037310;28;45290;-60
2022/11/01 06:50:18;;;;;;;;;0.67;0.67;;;;;12.97;68.27;101114.59;5035599;28;45377;-59
2022/11/01 06:52:44;;;;;;;;;2.67;1.00;;;;;12.92;68.35;101122.03;5032338;28;45663;-60
2022/11/01 06:55:09;;;;;;;;;0.33;0.00;;;;;12.91;68.66;101119.44;5032180;28;45308;-61
2022/11/01 06:57:35;;;;;;;;;0.67;0.67;;;;;12.89;68.36;101122.19;5017076;28;45359;-60
2022/11/01 07:00:00;;;;;;;;;0.67;0.67;;;;;12.95;68.98;101132.50;5016819;28;45604;-60
2022/11/01 07:02:26;;;;;;;;;1.67;1.00;;;;;12.95;68.89;101139.66;5034122;28;45912;-60
2022/11/01 07:04:51;;;;;;;;;4.00;1.00;;;;;12.90;68.82;101131.94;5036951;28;46824;-60
2022/11/01 07:07:16;;;;;;;;;2.33;0.33;;;;;12.97;68.72;101149.31;5036681;28;45939;-59
2022/11/01 07:09:42;;;;;;;;;3.00;2.00;;;;;12.96;68.41;101149.41;5033148;28;45336;-59
2022/11/01 07:12:07;;;;;;;;;2.33;1.00;;;;;12.92;69.01;101146.03;5026927;28;47280;-60
2022/11/01 07:14:33;;;;;;;;;1.00;1.00;;;;;12.93;68.50;101145.09;5035662;28;45367;-59
2022/11/01 07:16:58;;;;;;;;;2.00;1.00;;;;;12.92;69.04;101147.84;5037012;28;45336;-60
2022/11/01 07:19:23;;;;;;;;;1.67;1.33;;;;;12.96;68.59;101154.72;5037555;28;45205;-60
2022/11/01 07:21:49;;;;;;;;;1.00;0.00;;;;;13.01;68.45;101155.31;5019225;28;45204;-59
2022/11/01 07:24:14;;;;;;;;;4.00;2.00;;;;;12.97;69.15;101162.66;5036757;28;45381;-60
2022/11/01 07:26:40;;;;;;;;;2.00;1.67;;;;;13.00;68.28;101166.94;5036991;28;45313;-60
2022/11/01 07:29:05;;;;;;;;;1.00;1.00;;;;;12.99;68.88;101168.75;5035031;28;45247;-61
2022/11/01 07:31:32;;;;;;;;;2.00;1.00;;;;;12.98;68.85;101175.06;5036953;28;45335;-62
2022/11/01 07:33:58;;;;;;;;;4.67;1.00;;;;;13.05;68.45;101174.72;5037063;28;46273;-61
2022/11/01 07:36:23;;;;;;;;;1.00;1.00;;;;;13.10;68.91;101183.31;5036643;28;45520;-60
2022/11/01 07:38:49;;;;;;;;;2.67;0.33;;;;;13.11;68.67;101179.69;5026987;28;45340;-61
2022/11/01 07:41:14;;;;;;;;;1.00;0.33;;;;;13.07;68.33;101176.34;5018056;28;45394;-60
2022/11/01 07:43:40;;;;;;;;;3.33;0.00;;;;;13.12;68.51;101179.59;5016588;28;46552;-63
2022/11/01 07:46:06;;;;;;;;;2.67;0.67;;;;;13.06;68.64;101168.44;5034491;28;45360;-60
2022/11/01 07:48:32;;;;;;;;;8.00;4.00;;;;;13.15;68.40;101191.91;5033010;28;45395;-62
2022/11/01 07:50:58;;;;;;;;;2.00;1.00;;;;;13.13;68.03;101188.47;5015328;28;45333;-59
2022/11/01 07:53:24;;;;;;;;;1.00;1.00;;;;;13.20;68.01;101201.44;5016347;28;46043;-59
2022/11/01 07:55:50;;;;;;;;;2.00;1.00;;;;;13.20;68.26;101195.22;5016295;28;45359;-60
2022/11/01 07:58:16;;;;;;;;;1.00;1.00;;;;;13.22;67.88;101196.00;5015366;28;45418;-60
2022/11/01 08:00:43;;;;;;;;;2.33;1.00;;;;;13.24;68.32;101202.13;5016963;28;45206;-59
2022/11/01 08:03:16;;;;;;;;;4.00;1.00;;;;;13.31;67.76;101203.50;5036206;28;47358;-59
2022/11/01 08:05:43;;;;;;;;;2.00;1.00;;;;;13.32;67.54;101204.34;5035747;28;45421;-60
2022/11/01 08:08:08;;;;;;;;;1.67;0.00;;;;;13.32;67.96;101194.53;5036079;28;45404;-59
2022/11/01 08:10:35;;;;;;;;;4.33;2.00;;;;;13.31;68.16;101208.84;5036102;28;45627;-61
2022/11/01 08:13:12;;;;;;;;;4.00;2.67;;;;;13.33;67.83;101209.59;5036149;28;47203;-60
2022/11/01 08:15:37;;;;;;;;;1.00;0.67;;;;;13.30;67.17;101201.78;5036678;28;45437;-61
2022/11/01 08:18:03;;;;;;;;;1.00;1.00;;;;;13.44;67.52;101217.88;5034877;28;45541;-61
2022/11/01 08:20:28;;;;;;;;;0.67;0.00;;;;;13.49;66.67;101212.25;5037345;28;45387;-61
2022/11/01 08:22:54;;;;;;;;;2.33;0.33;;;;;13.53;67.37;101213.78;5036175;28;46182;-61
2022/11/01 08:25:20;;;;;;;;;2.67;0.00;;;;;13.58;67.45;101209.91;5036077;28;45304;-60
2022/11/01 08:27:46;;;;;;;;;2.33;1.00;;;;;13.62;66.86;101207.03;5035844;28;45308;-63
2022/11/01 08:30:12;;;;;;;;;1.00;1.00;;;;;13.57;67.24;101215.34;5036216;28;45169;-59
2022/11/01 08:32:38;;;;;;;;;1.67;1.67;;;;;13.56;66.60;101198.44;5035776;28;45402;-60
2022/11/01 08:35:04;;;;;;;;;2.67;0.33;;;;;13.70;66.78;101204.78;5051352;28;45672;-61
2022/11/01 08:37:29;;;;;;;;;1.33;0.00;;;;;13.76;66.22;101204.41;5034849;28;45391;-60
2022/11/01 08:39:54;;;;;;;;;2.00;0.67;;;;;13.80;66.36;101205.94;5035781;28;45311;-60
2022/11/01 08:42:20;;;;;;;;;0.00;0.00;;;;;13.82;66.09;101198.72;5035778;28;45473;-61
2022/11/01 08:44:46;;;;;;;;;1.33;1.00;;;;;13.87;66.39;101201.97;5035620;28;45426;-61
2022/11/01 08:47:11;;;;;;;;;4.00;1.00;;;;;13.89;65.84;101205.41;5036000;28;45402;-61
2022/11/01 08:49:37;;;;;;;;;1.00;1.00;;;;;13.94;65.90;101202.47;5036044;28;45494;-61
2022/11/01 08:52:02;;;;;;;;;1.00;1.00;;;;;14.00;66.13;101200.28;5023704;28;46379;-59
2022/11/01 08:54:28;;;;;;;;;1.67;0.00;;;;;14.04;65.69;101198.25;5020818;28;45996;-59
2022/11/01 08:56:53;;;;;;;;;3.00;2.00;;;;;14.10;65.05;101197.91;5034503;28;45232;-61
2022/11/01 08:59:19;;;;;;;;;0.67;0.00;;;;;14.11;65.25;101184.44;5035848;28;45241;-60
2022/11/01 09:01:44;;;;;;;;;0.00;0.00;;;;;14.16;64.57;101194.84;5035869;28;45815;-61
2022/11/01 09:04:10;;;;;;;;;2.00;0.00;;;;;14.19;64.77;101189.28;5034309;28;45320;-60
2022/11/01 09:06:35;;;;;;;;;2.00;0.67;;;;;14.10;64.82;101172.00;5035662;28;45305;-61
2022/11/01 09:09:00;;;;;;;;;1.00;1.00;;;;;14.22;64.89;101185.59;5036273;28;45489;-61
2022/11/01 09:11:27;;;;;;;;;2.67;1.00;;;;;14.32;64.38;101192.06;5033688;28;45216;-61
2022/11/01 09:13:53;;;;;;;;;2.67;1.00;;;;;14.35;64.21;101197.25;5034411;28;45257;-60
2022/11/01 09:16:19;;;;;;;;;1.00;1.00;;;;;14.38;64.04;101197.06;5035472;28;45454;-63
2022/11/01 09:18:44;;;;;;;;;3.67;0.00;;;;;14.39;64.15;101204.13;5039119;28;45441;-60
2022/11/01 09:21:13;;;;;;;;;2.33;2.00;;;;;14.42;64.43;101201.25;5037769;28;47271;-62
2022/11/01 09:23:39;;;;;;;;;1.33;0.00;;;;;14.43;63.68;101186.91;5038821;28;45408;-61
2022/11/01 09:26:08;;;;;;;;;3.33;1.00;;;;;14.50;63.91;101203.50;5039694;28;45327;-60
2022/11/01 09:28:34;;;;;;;;;7.33;1.00;;;;;14.56;63.72;101201.28;5039348;28;45520;-61
2022/11/01 09:31:04;;;;;;;;;2.00;0.33;;;;;14.62;63.74;101194.69;5038869;28;45450;-62
2022/11/01 09:33:31;;;;;;;;;1.67;0.33;;;;;14.67;63.60;101204.13;5038036;28;45355;-60
2022/11/01 09:35:57;;;;;;;;;0.33;0.00;;;;;14.73;64.05;101209.13;5039320;28;45358;-60
2022/11/01 09:38:23;;;;;;;;;2.33;1.00;;;;;14.70;63.32;101206.63;5031490;28;45550;-61
2022/11/01 09:41:00;;;;;;;;;0.33;0.00;;;;;14.83;63.02;101213.88;5018584;28;46386;-60
2022/11/01 09:43:30;;;;;;;;;2.67;2.00;;;;;14.89;63.04;101208.13;5033720;28;45512;-61
2022/11/01 09:45:58;;;;;;;;;0.00;0.00;;;;;14.86;62.26;101194.94;5035384;28;45574;-62
2022/11/01 09:48:29;;;;;;;;;1.33;0.00;;;;;14.95;62.31;101197.00;5032674;28;45153;-60
2022/11/01 09:50:54;;;;;;;;;3.67;1.00;;;;;14.97;61.62;101206.69;5018392;28;46381;-61
2022/11/01 09:53:25;;;;;;;;;3.33;1.00;;;;;15.07;61.81;101217.66;5018545;28;45428;-60
2022/11/01 09:55:50;;;;;;;;;0.67;0.00;;;;;15.15;61.43;101219.84;5017358;28;45509;-61
2022/11/01 09:58:34;;;;;;;;;0.67;0.67;;;;;15.26;61.72;101226.22;5019138;28;45495;-61
2022/11/01 10:01:39;;;;;;;;;4.00;1.00;;;;;15.32;61.14;101217.78;5019490;28;45446;-61
2022/11/01 10:04:43;;;;;;;;;5.00;1.00;;;;;15.46;61.24;101218.69;4999150;28;45332;-60
2022/11/01 10:07:50;;;;;;;;;2.00;0.00;;;;;15.51;61.17;101221.94;4998781;28;45446;-60
2022/11/01 10:10:34;;;;;;;;;2.33;1.00;;;;;15.60;60.52;101221.31;5013302;28;45380;-61
2022/11/01 10:13:18;;;;;;;;;1.33;1.00;;;;;15.71;60.37;101216.09;4998052;28;45488;-60
2022/11/01 10:16:21;;;;;;;;;4.67;1.00;;;;;15.78;60.25;101220.09;4997901;28;45451;-61
2022/11/01 10:18:59;;;;;;;;;5.33;0.00;;;;;15.84;59.46;101213.44;4998073;28;45290;-60
2022/11/01 10:21:29;;;;;;;;;2.00;1.00;;;;;15.87;59.95;101207.88;5038341;28;45359;-61
2022/11/01 10:23:57;;;;;;;;;0.00;0.00;;;;;15.91;59.71;101215.63;5036644;28;48975;-61
2022/11/01 10:26:28;;;;;;;;;1.00;1.00;;;;;15.99;59.36;101217.75;5037982;28;45240;-61
2022/11/01 10:29:05;;;;;;;;;1.33;1.00;;;;;16.05;58.74;101216.50;5037742;28;45464;-61
2022/11/01 10:31:36;;;;;;;;;1.00;1.00;;;;;16.12;58.47;101220.47;5037909;28;45192;-60
2022/11/01 10:34:14;;;;;;;;;2.00;1.00;;;;;16.19;58.41;101225.31;5037414;28;46349;-60
2022/11/01 10:36:43;;;;;;;;;1.00;1.00;;;;;16.26;58.18;101214.13;5035906;28;45235;-61
2022/11/01 10:39:35;;;;;;;;;1.33;1.00;;;;;16.46;57.75;101214.47;5036335;28;45430;-61
2022/11/01 10:42:12;;;;;;;;;3.00;1.33;;;;;16.59;58.10;101206.38;5036383;28;45364;-61
2022/11/01 10:45:00;;;;;;;;;3.33;0.33;;;;;16.69;57.10;101217.38;5037538;28;45417;-61
2022/11/01 10:47:27;;;;;;;;;3.33;1.00;;;;;16.77;56.58;101209.59;5037554;28;45449;-61
2022/11/01 10:50:16;;;;;;;;;3.67;1.33;;;;;16.86;56.95;101203.56;5037569;28;45421;-60
2022/11/01 10:52:54;;;;;;;;;2.67;1.33;;;;;17.04;56.28;101207.59;5019998;28;45494;-61
2022/11/01 10:55:33;;;;;;;;;3.00;1.00;;;;;17.13;55.36;101203.38;4997661;28;45428;-61
2022/11/01 10:58:10;;;;;;;;;2.00;1.00;;;;;17.17;55.15;101210.25;4997373;28;45256;-61
2022/11/01 11:00:39;;;;;;;;;3.00;0.33;;;;;17.21;53.66;101192.06;5013015;28;45419;-60
2022/11/01 11:03:18;;;;;;;;;0.00;0.00;;;;;17.37;54.60;101203.41;4998013;28;45550;-61
2022/11/01 11:05:45;;;;;;;;;4.33;1.33;;;;;17.46;54.19;101209.94;4995891;28;46887;-60
2022/11/01 11:08:16;;;;;;;;;2.00;1.00;;;;;17.50;54.22;101204.19;4997232;28;45422;-60
2022/11/01 11:10:43;;;;;;;;;2.33;0.67;;;;;17.62;53.81;101211.34;5002218;28;45393;-61
2022/11/01 11:13:11;;;;;;;;;4.00;1.00;;;;;17.59;53.90;101200.81;5018609;28;45241;-61
2022/11/01 11:15:48;;;;;;;;;3.33;1.67;;;;;17.71;54.50;101200.88;5018499;28;46565;-61
2022/11/01 11:18:22;;;;;;;;;1.67;0.00;;;;;17.78;53.57;101199.44;5017900;28;45393;-62
2022/11/01 11:20:58;;;;;;;;;3.00;0.00;;;;;17.95;53.38;101197.16;5016530;28;45312;-61
2022/11/01 11:23:28;;;;;;;;;4.00;1.00;;;;;18.07;52.92;101198.03;5017653;28;45458;-61
2022/11/01 11:26:00;;;;;;;;;4.33;1.00;;;;;18.12;53.29;101195.88;5017416;28;46977;-61
2022/11/01 11:28:30;;;;;;;;;2.00;2.00;;;;;17.94;53.35;101187.38;5018823;28;45404;-60
2022/11/01 11:31:18;;;;;;;;;3.00;1.00;;;;;17.92;53.65;101194.69;5037106;28;45561;-60
2022/11/01 11:33:53;;;;;;;;;2.00;0.00;;;;;17.71;53.63;101191.00;5022979;28;45580;-60
2022/11/01 11:36:53;;;;;;;;;6.00;2.00;;;;;17.61;54.68;101206.94;5032444;28;47988;-61
2022/11/01 11:39:27;;;;;;;;;2.00;2.00;;;;;17.57;54.16;101205.44;5014257;28;45486;-62
2022/11/01 11:42:10;;;;;;;;;1.67;0.33;;;;;17.64;54.40;101201.31;5016919;28;45355;-61